Terminal Aerodrome Forecast
Issued by NWS Cleveland, OH

Home | Current Version | Previous Version | Graphics & Text | Print | Product List | Glossary On
Versions: 1 2 3 4 5 6 7 8 9 10 11 12 13 14 15 16 17 18 19
000
FTUS41 KCLE 251001 AAB
TAFERI
TAF AMD
KERI 251001Z 2510/2606 22006KT P6SM BKN025 OVC050
      TEMPO 2510/2514 5SM -SHRA OVC025
     FM251400 25010G20KT P6SM BKN035
     FM251800 27010G20KT P6SM BKN045
     FM260000 25006KT P6SM BKN035 OVC060
      TEMPO 2600/2604 5SM -SHRA SCT020 OVC035=

USA.gov is the U.S. government's official web portal to all federal, state and local government web resources and services.